Time;durP1;ratioP1;P1;durP2;ratioP2;P2;SDS_P1;SDS_P2;PMS_P1;PMS_P2;Temp;Humidity;BMP_temperature;BMP_pressure;BME280_temperature;BME280_humidity;BME280_pressure;Samples;Min_cycle;Max_cycle;Signal;HPM_P1;HPM_P2
2022/01/14 00:01:04;;;;;;;21.15;10.35;;;5.80;99.90;;;;;;5049399;28;20064;-67
2022/01/14 00:03:31;;;;;;;17.08;9.77;;;5.70;99.90;;;;;;5049477;28;20053;-67
2022/01/14 00:05:56;;;;;;;22.45;10.30;;;5.80;99.90;;;;;;5049399;28;20065;-67
2022/01/14 00:08:22;;;;;;;22.55;10.25;;;5.80;99.90;;;;;;5050630;28;20052;-67
2022/01/14 00:10:51;;;;;;;23.75;10.93;;;5.80;99.90;;;;;;5050615;28;20052;-67
2022/01/14 00:13:45;;;;;;;23.70;9.95;;;5.80;99.90;;;;;;5049055;28;20171;-67
2022/01/14 00:16:10;;;;;;;17.90;9.93;;;5.80;99.90;;;;;;5050568;28;20052;-67
2022/01/14 00:18:36;;;;;;;29.95;11.48;;;5.80;99.90;;;;;;5050672;28;20033;-67
2022/01/14 00:21:02;;;;;;;20.88;10.50;;;5.80;99.90;;;;;;5049839;28;20063;-67
2022/01/14 00:23:33;;;;;;;18.88;10.30;;;5.80;99.90;;;;;;5049444;28;20064;-67
2022/01/14 00:34:24;;;;;;;24.00;10.63;;;5.80;99.90;;;;;;5053361;28;20518;-67
2022/01/14 00:36:50;;;;;;;26.27;11.60;;;5.70;99.90;;;;;;5054799;28;20060;-67
2022/01/14 00:39:16;;;;;;;25.98;11.52;;;5.70;99.90;;;;;;5053191;28;20395;-67
2022/01/14 00:41:42;;;;;;;23.77;12.27;;;5.70;99.90;;;;;;5054135;28;20052;-67
2022/01/14 00:44:14;;;;;;;18.75;11.93;;;5.60;99.90;;;;;;5052938;28;20548;-67
2022/01/14 00:46:42;;;;;;;24.90;12.20;;;5.60;99.90;;;;;;5053360;28;20057;-67
2022/01/14 00:49:09;;;;;;;26.42;12.43;;;5.60;99.90;;;;;;5052374;28;20178;-67
2022/01/14 00:51:35;;;;;;;20.88;12.20;;;5.60;99.90;;;;;;5053112;28;20056;-67
2022/01/14 00:54:03;;;;;;;25.55;12.32;;;5.50;99.90;;;;;;5053945;28;20036;-67
2022/01/14 00:56:44;;;;;;;21.83;11.20;;;5.50;99.90;;;;;;5051305;28;20053;-67
2022/01/14 00:59:16;;;;;;;24.17;11.48;;;5.50;99.90;;;;;;5053952;28;20060;-67
2022/01/14 01:01:58;;;;;;;24.52;12.30;;;5.50;99.90;;;;;;5054330;28;20052;-67
2022/01/14 01:04:31;;;;;;;;;;;5.40;99.90;;;;;;5053258;28;20052;-67
2022/01/14 01:06:58;;;;;;;;;;;5.50;99.90;;;;;;5054465;28;20389;-67
2022/01/14 01:09:25;;;;;;;27.38;13.40;;;5.40;99.90;;;;;;5051893;28;19921;-67
2022/01/14 01:12:05;;;;;;;25.67;11.35;;;5.40;99.90;;;;;;5052670;28;20439;-67
2022/01/14 01:14:40;;;;;;;25.45;11.88;;;5.40;99.90;;;;;;5052454;28;20044;-67
2022/01/14 01:17:07;;;;;;;30.65;12.50;;;5.40;99.90;;;;;;5051801;28;20119;-67
2022/01/14 01:19:33;;;;;;;27.52;12.20;;;5.50;99.90;;;;;;5053638;28;20053;-67
2022/01/14 01:21:58;;;;;;;26.10;11.27;;;5.50;99.90;;;;;;5053896;28;20085;-67
2022/01/14 01:24:24;;;;;;;31.38;11.40;;;5.50;99.90;;;;;;5052061;28;20040;-67
2022/01/14 01:26:51;;;;;;;21.90;11.32;;;5.50;99.90;;;;;;5053851;28;20041;-67
2022/01/14 01:29:32;;;;;;;28.20;12.43;;;5.50;99.90;;;;;;5052190;28;20225;-67
2022/01/14 01:31:57;;;;;;;26.25;11.13;;;5.50;99.90;;;;;;5052230;28;20484;-67
2022/01/14 01:34:25;;;;;;;24.08;11.32;;;5.50;99.90;;;;;;5053375;28;20135;-67
2022/01/14 01:36:53;;;;;;;23.45;12.07;;;5.50;99.90;;;;;;5052780;28;20422;-67
2022/01/14 01:39:21;;;;;;;24.42;11.25;;;5.60;99.90;;;;;;5051801;28;20430;-67
2022/01/14 01:41:50;;;;;;;27.38;13.30;;;5.50;99.90;;;;;;5053406;28;20045;-67
2022/01/14 01:44:17;;;;;;;24.35;11.52;;;5.60;99.90;;;;;;5052579;28;20147;-67
2022/01/14 01:46:46;;;;;;;18.77;12.18;;;5.60;99.90;;;;;;5051656;28;20450;-67
2022/01/14 01:49:13;;;;;;;17.73;11.55;;;5.60;99.90;;;;;;5070281;28;20045;-67
2022/01/14 01:51:39;;;;;;;24.40;13.25;;;5.60;99.90;;;;;;5052928;28;20451;-68
2022/01/14 01:54:05;;;;;;;26.13;12.23;;;5.60;99.90;;;;;;5053027;28;20399;-67
2022/01/14 01:56:31;;;;;;;28.17;12.88;;;5.60;99.90;;;;;;5053091;28;20041;-67
2022/01/14 01:58:57;;;;;;;20.17;12.55;;;5.60;99.90;;;;;;5085215;28;20060;-67
2022/01/14 02:01:24;;;;;;;24.95;11.90;;;5.70;99.90;;;;;;5085689;28;20037;-67
2022/01/14 02:03:52;;;;;;;31.25;12.73;;;5.70;99.90;;;;;;5051723;28;20060;-67
2022/01/14 02:06:20;;;;;;;21.90;12.02;;;5.70;99.90;;;;;;5051057;28;20079;-68
2022/01/14 02:08:46;;;;;;;20.35;11.43;;;5.70;99.90;;;;;;5051644;28;20063;-67
2022/01/14 02:11:12;;;;;;;24.38;12.70;;;5.70;99.90;;;;;;5052478;28;20602;-67
2022/01/14 02:13:38;;;;;;;24.83;12.23;;;5.70;99.90;;;;;;5052395;28;20045;-67
2022/01/14 02:18:38;;;;;;;24.10;13.07;;;5.70;99.90;;;;;;5052955;28;20057;-67
2022/01/14 02:24:20;;;;;;;27.77;14.02;;;5.80;99.90;;;;;;5051973;28;20041;-67
2022/01/14 02:26:52;;;;;;;25.40;12.57;;;5.80;99.90;;;;;;5052163;28;20080;-67
2022/01/14 02:29:19;;;;;;;24.70;12.88;;;5.80;99.90;;;;;;5051162;28;20441;-67
2022/01/14 02:31:45;;;;;;;28.80;13.60;;;5.80;99.90;;;;;;5052376;28;20041;-67
2022/01/14 02:34:13;;;;;;;32.65;13.88;;;5.80;99.90;;;;;;5051697;28;20041;-68
2022/01/14 02:36:43;;;;;;;18.05;11.93;;;5.80;99.90;;;;;;5052455;28;20638;-67
2022/01/14 02:39:11;;;;;;;25.13;12.98;;;5.80;99.90;;;;;;5052039;28;20033;-67
2022/01/14 02:41:39;;;;;;;25.13;14.02;;;5.80;99.90;;;;;;5050930;28;20103;-67
2022/01/14 02:44:07;;;;;;;28.92;14.13;;;5.90;99.90;;;;;;5052005;28;20491;-67
2022/01/14 02:46:40;;;;;;;25.50;13.15;;;5.80;99.90;;;;;;5052373;28;20079;-67
2022/01/14 02:49:06;;;;;;;30.95;13.13;;;5.80;99.90;;;;;;5049253;28;20049;-67
2022/01/14 02:51:32;;;;;;;22.55;12.60;;;5.80;99.90;;;;;;5084384;28;20063;-67
2022/01/14 02:54:11;;;;;;;22.15;14.43;;;5.90;99.90;;;;;;5051116;28;20483;-67
2022/01/14 02:56:38;;;;;;;35.50;14.15;;;5.90;99.90;;;;;;5084561;28;20879;-67
2022/01/14 02:59:05;;;;;;;24.58;13.45;;;5.90;99.90;;;;;;5049689;28;20048;-67
2022/01/14 03:01:32;;;;;;;27.00;13.55;;;5.90;99.90;;;;;;5050106;28;20056;-67
2022/01/14 03:04:01;;;;;;;21.60;11.95;;;5.90;99.90;;;;;;5051919;28;20044;-67
2022/01/14 03:06:27;;;;;;;24.23;13.23;;;5.90;99.90;;;;;;5050362;28;20048;-67
2022/01/14 03:08:53;;;;;;;19.77;12.88;;;5.90;99.90;;;;;;5051261;28;20179;-67
2022/01/14 03:11:47;;;;;;;25.85;12.23;;;5.90;99.90;;;;;;5050419;28;20056;-67
2022/01/14 03:14:21;;;;;;;30.77;15.02;;;5.90;99.90;;;;;;5051456;28;20053;-67
2022/01/14 03:16:48;;;;;;;24.67;14.85;;;5.90;99.90;;;;;;5050199;28;20878;-67
2022/01/14 03:19:20;;;;;;;20.52;13.95;;;5.90;99.90;;;;;;5050869;28;20089;-67
2022/01/14 03:21:46;;;;;;;27.20;13.50;;;5.90;99.90;;;;;;5051724;28;20040;-67
2022/01/14 03:25:36;;;;;;;23.13;14.60;;;5.90;99.90;;;;;;5082990;28;20475;-66
2022/01/14 03:27:07;;;;;;;21.65;14.30;;;5.90;99.90;;;;;;5050968;28;20056;-66
2022/01/14 03:29:33;;;;;;;30.38;14.55;;;5.90;99.90;;;;;;5049618;28;20048;-66
2022/01/14 03:31:58;;;;;;;34.88;14.55;;;6.00;99.90;;;;;;5049960;28;20041;-66
2022/01/14 03:34:24;;;;;;;28.00;14.80;;;6.00;99.90;;;;;;5049512;28;20060;-66
2022/01/14 03:36:50;;;;;;;21.83;13.43;;;6.00;99.90;;;;;;5049277;28;20407;-66
2022/01/14 03:39:17;;;;;;;26.20;15.00;;;6.00;99.90;;;;;;5051292;28;20041;-66
2022/01/14 03:41:43;;;;;;;21.92;14.15;;;6.00;99.90;;;;;;5049746;28;20495;-66
2022/01/14 03:44:09;;;;;;;23.88;14.00;;;6.00;99.90;;;;;;5049407;28;20052;-66
2022/01/14 03:46:34;;;;;;;23.10;13.32;;;6.00;99.90;;;;;;5051300;28;20135;-66
2022/01/14 03:49:00;;;;;;;31.05;14.57;;;6.00;99.90;;;;;;5050953;28;20056;-66
2022/01/14 03:51:27;;;;;;;27.33;14.07;;;6.00;99.90;;;;;;5082855;28;20053;-66
2022/01/14 03:53:53;;;;;;;31.63;14.20;;;6.00;99.90;;;;;;5049563;28;20091;-66
2022/01/14 03:56:19;;;;;;;30.10;13.50;;;6.00;99.90;;;;;;5049186;28;20045;-66
2022/01/14 03:58:44;;;;;;;28.67;14.15;;;6.00;99.90;;;;;;5049269;28;20053;-66
2022/01/14 04:01:11;;;;;;;31.20;13.30;;;6.00;99.90;;;;;;5049157;28;20138;-66
2022/01/14 04:03:38;;;;;;;23.58;14.23;;;6.00;99.90;;;;;;5049427;28;20052;-66
2022/01/14 04:06:04;;;;;;;24.08;13.80;;;6.00;99.90;;;;;;5050058;28;20052;-67
2022/01/14 04:08:30;;;;;;;24.80;14.02;;;6.00;99.90;;;;;;5049369;28;20139;-66
2022/01/14 04:10:58;;;;;;;25.77;13.45;;;6.00;99.90;;;;;;5051035;28;20124;-66
2022/01/14 04:13:36;;;;;;;26.05;14.43;;;6.00;99.90;;;;;;5050186;28;20128;-66
2022/01/14 04:16:02;;;;;;;24.00;14.20;;;6.10;99.90;;;;;;5049434;28;20076;-66
2022/01/14 04:18:28;;;;;;;26.02;13.65;;;6.00;99.90;;;;;;5050713;28;20083;-66
2022/01/14 04:20:55;;;;;;;26.80;14.35;;;6.00;99.90;;;;;;5050177;28;20063;-66
2022/01/14 04:23:24;;;;;;;32.92;15.48;;;6.00;99.90;;;;;;5050416;28;20057;-66
2022/01/14 04:25:53;;;;;;;24.60;13.60;;;5.90;99.90;;;;;;5050822;28;20056;-66
2022/01/14 04:28:20;;;;;;;26.02;13.55;;;5.90;99.90;;;;;;5050492;28;20491;-66
2022/01/14 04:30:47;;;;;;;24.13;13.15;;;5.80;99.90;;;;;;5050503;28;20087;-66
2022/01/14 04:33:13;;;;;;;25.35;13.65;;;5.80;99.90;;;;;;5048618;28;20099;-66
2022/01/14 04:35:38;;;;;;;22.40;13.15;;;5.70;99.90;;;;;;5050949;28;20430;-66
2022/01/14 04:38:04;;;;;;;23.00;13.73;;;5.70;99.90;;;;;;5048927;28;20075;-67
2022/01/14 04:40:30;;;;;;;34.40;13.52;;;5.70;99.90;;;;;;5050247;28;20041;-66
2022/01/14 04:42:58;;;;;;;26.42;13.40;;;5.70;99.90;;;;;;5082939;28;20037;-66
2022/01/14 04:47:54;;;;;;;21.38;13.57;;;5.70;99.90;;;;;;5048696;28;20091;-66
2022/01/14 04:50:21;;;;;;;20.95;12.02;;;5.70;99.90;;;;;;5048868;28;20041;-66
2022/01/14 04:52:48;;;;;;;29.05;13.82;;;5.70;99.90;;;;;;5050292;28;20675;-66
2022/01/14 04:55:17;;;;;;;28.85;14.30;;;5.70;99.90;;;;;;5082337;28;20046;-66
2022/01/14 04:57:44;;;;;;;24.60;13.25;;;5.70;99.90;;;;;;5082786;28;20080;-66
2022/01/14 05:00:13;;;;;;;26.08;14.07;;;5.70;99.90;;;;;;5048745;28;20061;-66
2022/01/14 05:02:39;;;;;;;30.95;15.18;;;5.70;99.90;;;;;;5048684;28;20056;-66
2022/01/14 05:05:07;;;;;;;25.85;14.55;;;5.70;99.90;;;;;;5050107;28;20041;-66
2022/01/14 05:07:33;;;;;;;18.77;12.43;;;5.70;99.90;;;;;;5050461;28;20081;-66
2022/01/14 05:12:28;;;;;;;31.50;18.73;;;5.70;99.90;;;;;;5051003;28;20106;-66
2022/01/14 05:14:53;;;;;;;30.35;14.27;;;5.70;99.90;;;;;;5054108;28;20512;-66
2022/01/14 05:17:19;;;;;;;29.58;14.93;;;5.70;99.90;;;;;;5051954;28;20446;-67
2022/01/14 05:19:46;;;;;;;25.38;15.00;;;5.70;99.90;;;;;;5053766;28;20056;-67
2022/01/14 05:22:11;;;;;;;28.75;15.85;;;5.70;99.90;;;;;;5084924;28;20041;-66
2022/01/14 05:24:37;;;;;;;23.10;15.38;;;5.70;99.90;;;;;;5053806;28;20045;-66
2022/01/14 05:27:03;;;;;;;27.40;14.70;;;5.70;99.90;;;;;;5053421;28;20065;-67
2022/01/14 05:29:28;;;;;;;32.33;14.18;;;5.70;99.90;;;;;;5053317;28;20798;-66
2022/01/14 05:32:02;;;;;;;25.10;13.75;;;5.70;99.90;;;;;;5053483;28;20049;-66
2022/01/14 05:34:28;;;;;;;24.50;13.98;;;5.80;99.90;;;;;;5053071;28;20059;-66
2022/01/14 05:36:54;;;;;;;28.90;15.98;;;5.70;99.90;;;;;;5051294;28;20072;-66
2022/01/14 05:39:20;;;;;;;30.17;16.15;;;5.80;99.90;;;;;;5053256;28;20095;-66
2022/01/14 05:41:46;;;;;;;27.95;16.35;;;5.80;99.90;;;;;;5051974;28;20064;-66
2022/01/14 05:44:12;;;;;;;32.45;15.13;;;5.80;99.90;;;;;;5051348;28;20081;-66
2022/01/14 05:46:38;;;;;;;29.42;15.40;;;5.80;99.90;;;;;;5052155;28;20079;-66
2022/01/14 05:49:04;;;;;;;24.20;13.93;;;5.80;99.90;;;;;;5053030;28;20044;-67
2022/01/14 05:51:30;;;;;;;24.45;14.45;;;5.70;99.90;;;;;;5051763;28;20057;-66
2022/01/14 05:53:55;;;;;;;26.30;16.80;;;5.80;99.90;;;;;;5053292;28;20064;-66
2022/01/14 05:56:21;;;;;;;31.92;15.65;;;5.80;99.90;;;;;;5052979;28;20486;-66
2022/01/14 05:58:47;;;;;;;27.73;15.45;;;5.80;99.90;;;;;;5052046;28;20087;-66
2022/01/14 06:01:12;;;;;;;22.73;12.95;;;5.70;99.90;;;;;;5068439;28;20041;-66
2022/01/14 06:03:38;;;;;;;26.42;14.18;;;5.80;99.90;;;;;;5044317;28;20044;-66
2022/01/14 06:06:04;;;;;;;21.67;14.80;;;5.70;99.90;;;;;;5064736;28;20050;-66
2022/01/14 06:08:29;;;;;;;20.52;13.60;;;5.70;99.90;;;;;;5032940;28;20048;-66
2022/01/14 06:10:55;;;;;;;27.77;15.82;;;5.70;99.90;;;;;;5049847;28;20139;-66
2022/01/14 06:13:20;;;;;;;34.92;16.13;;;5.80;99.90;;;;;;5052284;28;20051;-66
2022/01/14 06:15:46;;;;;;;26.65;14.65;;;5.70;99.90;;;;;;5051417;28;20049;-66
2022/01/14 06:18:12;;;;;;;30.42;15.23;;;5.70;99.90;;;;;;5052758;28;20490;-66
2022/01/14 06:20:37;;;;;;;18.75;12.65;;;5.70;99.90;;;;;;5052296;28;20060;-66
2022/01/14 06:23:03;;;;;;;23.25;13.40;;;5.70;99.90;;;;;;5050974;28;20057;-66
2022/01/14 06:25:28;;;;;;;24.38;14.00;;;5.70;99.90;;;;;;5052231;28;20726;-66
2022/01/14 06:27:54;;;;;;;23.60;12.82;;;5.70;99.90;;;;;;5052739;28;20394;-66
2022/01/14 06:30:19;;;;;;;21.73;12.10;;;5.80;99.90;;;;;;5083468;28;20060;-66
2022/01/14 06:32:45;;;;;;;20.95;11.75;;;5.80;99.90;;;;;;5051660;28;20083;-66
2022/01/14 06:35:13;;;;;;;25.30;12.65;;;5.80;99.90;;;;;;5049909;28;20091;-66
2022/01/14 06:37:39;;;;;;;19.35;10.75;;;5.80;99.90;;;;;;5051085;28;20045;-66
2022/01/14 06:40:06;;;;;;;21.08;11.95;;;5.80;99.90;;;;;;5051276;28;20045;-67
2022/01/14 06:42:33;;;;;;;18.92;10.82;;;5.80;99.90;;;;;;5083709;28;20041;-67
2022/01/14 06:44:58;;;;;;;19.10;10.85;;;5.80;99.90;;;;;;5050064;28;20052;-68
2022/01/14 06:47:25;;;;;;;18.67;10.73;;;5.80;99.90;;;;;;5083529;28;20458;-68
2022/01/14 06:49:50;;;;;;;16.27;10.35;;;5.90;99.90;;;;;;5051361;28;20077;-66
2022/01/14 06:52:16;;;;;;;22.25;11.48;;;5.90;99.90;;;;;;5083721;28;20049;-72
2022/01/14 06:54:42;;;;;;;20.88;10.02;;;5.90;99.90;;;;;;5083641;28;20107;-69
2022/01/14 06:57:08;;;;;;;16.60;8.80;;;5.90;99.90;;;;;;5083338;28;20388;-70
2022/01/14 06:59:33;;;;;;;21.70;9.00;;;5.90;99.90;;;;;;5050775;28;20048;-68
2022/01/14 07:02:00;;;;;;;15.80;9.18;;;5.90;99.90;;;;;;5051342;28;20052;-69
2022/01/14 07:04:25;;;;;;;17.15;8.52;;;5.90;99.90;;;;;;5051124;28;20048;-68
2022/01/14 07:06:51;;;;;;;15.00;9.77;;;6.00;99.90;;;;;;5050860;28;20045;-68
2022/01/14 07:09:17;;;;;;;20.85;8.52;;;6.00;99.90;;;;;;5050953;28;20860;-68
2022/01/14 07:11:47;;;;;;;22.38;8.48;;;6.00;99.90;;;;;;5050571;28;20395;-68
2022/01/14 07:14:12;;;;;;;28.60;9.60;;;5.90;99.90;;;;;;5051702;28;20517;-68
2022/01/14 07:16:38;;;;;;;16.05;7.75;;;6.00;99.90;;;;;;5050971;28;20090;-67
2022/01/14 07:19:04;;;;;;;21.75;9.25;;;6.00;99.90;;;;;;5048380;28;20052;-70
2022/01/14 07:21:33;;;;;;;13.77;8.38;;;5.90;99.90;;;;;;5049884;28;20053;-69
2022/01/14 07:23:58;;;;;;;24.73;7.03;;;6.00;99.90;;;;;;5047593;28;20086;-69
2022/01/14 07:26:24;;;;;;;16.35;8.38;;;5.90;99.90;;;;;;5048655;28;20050;-71
2022/01/14 07:28:49;;;;;;;16.15;7.32;;;5.90;99.90;;;;;;5049760;28;20088;-70
2022/01/14 07:31:15;;;;;;;20.95;7.93;;;5.90;99.90;;;;;;5049068;28;20136;-71
2022/01/14 07:33:41;;;;;;;11.23;7.65;;;6.00;99.90;;;;;;5049910;28;20052;-70
2022/01/14 07:36:06;;;;;;;12.73;7.80;;;6.00;99.90;;;;;;5048994;28;20061;-70
2022/01/14 07:38:32;;;;;;;14.15;6.75;;;6.00;99.90;;;;;;5044887;28;20250;-71
2022/01/14 07:40:57;;;;;;;14.98;7.03;;;6.00;99.90;;;;;;5049936;28;20059;-68
2022/01/14 07:43:23;;;;;;;20.02;7.38;;;6.00;99.90;;;;;;5049321;28;20037;-69
2022/01/14 07:45:49;;;;;;;16.30;7.55;;;6.00;99.90;;;;;;5049917;28;20045;-69
2022/01/14 07:48:15;;;;;;;1744.80;219.20;;;6.10;99.90;;;;;;5049525;28;20049;-70
2022/01/14 07:50:41;;;;;;;21.48;7.20;;;6.00;99.90;;;;;;5048719;28;20052;-70
2022/01/14 07:53:06;;;;;;;71.55;10.75;;;6.10;99.90;;;;;;5082876;28;20115;-71
2022/01/14 07:55:32;;;;;;;14.82;6.78;;;6.10;99.90;;;;;;5084482;28;20434;-71
2022/01/14 07:57:57;;;;;;;12.77;6.20;;;6.10;99.90;;;;;;5082982;28;20411;-70
2022/01/14 08:00:23;;;;;;;21.27;6.05;;;6.10;99.90;;;;;;5083586;28;20061;-71
2022/01/14 08:02:49;;;;;;;20.42;5.95;;;6.10;99.90;;;;;;5044703;28;20041;-71
2022/01/14 08:05:16;;;;;;;46.83;8.88;;;6.10;99.90;;;;;;5031086;28;20049;-71
2022/01/14 08:07:46;;;;;;;14.15;6.53;;;6.10;99.90;;;;;;5031643;28;20442;-71
2022/01/14 08:10:15;;;;;;;13.48;5.82;;;6.10;99.90;;;;;;5031508;28;20469;-71
2022/01/14 08:12:41;;;;;;;13.30;6.50;;;6.10;99.90;;;;;;5046666;28;20071;-71
2022/01/14 08:15:09;;;;;;;15.75;6.38;;;6.10;99.90;;;;;;5046625;28;20037;-70
2022/01/14 08:17:35;;;;;;;10.15;5.40;;;6.10;99.90;;;;;;5047157;28;20098;-71
2022/01/14 08:20:01;;;;;;;15.48;6.60;;;6.10;99.90;;;;;;5030754;28;20053;-72
2022/01/14 08:22:28;;;;;;;11.77;6.07;;;6.10;99.90;;;;;;5049601;28;20049;-71
2022/01/14 08:24:54;;;;;;;13.93;5.38;;;6.10;99.90;;;;;;5051310;28;20045;-71
2022/01/14 08:27:20;;;;;;;11.65;5.78;;;6.10;99.90;;;;;;5039786;28;20436;-71
2022/01/14 08:29:47;;;;;;;13.50;6.05;;;6.20;99.90;;;;;;5063697;28;20550;-71
2022/01/14 08:32:13;;;;;;;27.40;7.35;;;6.20;99.90;;;;;;5047324;28;20056;-71
2022/01/14 08:34:39;;;;;;;19.48;6.35;;;6.10;99.90;;;;;;5050443;28;20052;-71
2022/01/14 08:37:05;;;;;;;12.27;6.13;;;6.20;99.90;;;;;;5049666;28;20041;-71
2022/01/14 08:39:31;;;;;;;18.80;6.28;;;6.20;99.90;;;;;;5051060;28;20106;-71
2022/01/14 08:41:58;;;;;;;17.65;6.47;;;6.20;99.90;;;;;;5050217;28;20056;-71
2022/01/14 08:44:24;;;;;;;15.57;5.80;;;6.20;99.90;;;;;;5051213;28;20045;-71
2022/01/14 08:46:51;;;;;;;16.83;6.70;;;6.20;99.90;;;;;;5051212;28;20052;-70
2022/01/14 08:49:17;;;;;;;13.30;5.75;;;6.20;99.90;;;;;;5053684;28;20380;-71
2022/01/14 08:51:42;;;;;;;15.73;5.65;;;6.30;99.90;;;;;;5054183;28;20075;-71
2022/01/14 08:54:08;;;;;;;16.83;5.63;;;6.30;99.90;;;;;;5054471;28;20094;-71
2022/01/14 08:56:35;;;;;;;15.77;5.40;;;6.30;99.90;;;;;;5055213;28;20550;-71
2022/01/14 08:59:00;;;;;;;13.45;4.90;;;6.40;99.90;;;;;;5053811;28;20067;-72
2022/01/14 09:01:26;;;;;;;11.82;5.15;;;6.30;99.90;;;;;;5053273;28;20049;-71
2022/01/14 09:03:52;;;;;;;7.53;4.60;;;6.40;99.90;;;;;;5053511;28;20384;-71
2022/01/14 09:06:18;;;;;;;13.63;4.22;;;6.40;99.90;;;;;;5053414;28;20470;-71
2022/01/14 09:08:43;;;;;;;11.60;4.80;;;6.40;99.90;;;;;;5053450;28;20048;-71
2022/01/14 09:11:09;;;;;;;17.35;5.05;;;6.50;99.90;;;;;;5053064;28;20076;-71
2022/01/14 09:13:35;;;;;;;16.50;4.70;;;6.50;99.90;;;;;;5055023;28;20391;-70
2022/01/14 09:16:00;;;;;;;8.70;4.38;;;6.50;99.90;;;;;;5052692;28;20056;-71
2022/01/14 09:18:27;;;;;;;11.02;4.22;;;6.60;99.90;;;;;;5053142;28;20042;-70
2022/01/14 09:20:52;;;;;;;11.43;4.22;;;6.60;99.90;;;;;;5054079;28;20056;-69
2022/01/14 09:23:24;;;;;;;11.43;4.00;;;6.60;99.90;;;;;;5053773;28;20399;-70
2022/01/14 09:25:50;;;;;;;8.52;3.70;;;6.60;99.90;;;;;;5053167;28;20044;-69
2022/01/14 09:28:16;;;;;;;10.70;4.15;;;6.60;99.90;;;;;;5052735;28;20132;-69
2022/01/14 09:30:42;;;;;;;11.30;4.30;;;6.70;99.90;;;;;;5052979;28;20060;-70
2022/01/14 09:33:07;;;;;;;16.65;4.00;;;6.70;99.90;;;;;;5052289;28;20053;-70
2022/01/14 09:35:33;;;;;;;14.60;4.63;;;6.70;99.90;;;;;;5053785;28;20056;-69
2022/01/14 09:37:59;;;;;;;10.90;3.60;;;6.80;99.90;;;;;;5053331;28;20045;-70
2022/01/14 09:40:26;;;;;;;12.75;4.30;;;6.80;99.90;;;;;;5053947;28;20131;-69
2022/01/14 09:42:57;;;;;;;8.60;4.43;;;6.80;99.90;;;;;;5053868;28;20079;-69
2022/01/14 09:45:23;;;;;;;66.10;9.98;;;6.80;99.90;;;;;;5051953;28;20159;-70
2022/01/14 09:47:50;;;;;;;11.35;4.47;;;6.90;99.90;;;;;;5054201;28;20052;-69
2022/01/14 09:50:16;;;;;;;9.52;4.20;;;6.90;99.90;;;;;;5051888;28;20056;-69
2022/01/14 09:52:45;;;;;;;13.05;3.65;;;6.90;99.90;;;;;;5052899;28;20045;-69
2022/01/14 09:55:11;;;;;;;6.00;2.97;;;7.00;99.90;;;;;;5052647;28;20053;-69
2022/01/14 09:57:36;;;;;;;9.40;2.63;;;6.90;99.90;;;;;;5052284;28;20086;-69
2022/01/14 10:00:05;;;;;;;7.47;3.05;;;7.00;99.90;;;;;;5052175;28;20081;-70
2022/01/14 10:02:37;;;;;;;18.00;3.85;;;7.00;99.90;;;;;;5054184;28;20124;-69
2022/01/14 10:05:05;;;;;;;11.20;3.03;;;7.00;99.90;;;;;;5065419;28;20098;-70
2022/01/14 10:07:33;;;;;;;12.18;3.45;;;7.10;99.90;;;;;;5033833;28;20072;-69
2022/01/14 10:10:00;;;;;;;15.05;4.00;;;7.00;99.90;;;;;;5032595;28;20046;-65
2022/01/14 10:12:32;;;;;;;15.40;3.47;;;7.00;99.90;;;;;;5033511;28;20088;-66
2022/01/14 10:15:09;;;;;;;14.70;3.17;;;7.10;99.90;;;;;;5065909;28;20053;-66
2022/01/14 10:17:45;;;;;;;16.02;3.70;;;7.10;99.90;;;;;;5033587;28;20041;-65
2022/01/14 10:20:14;;;;;;;12.38;3.58;;;7.10;99.90;;;;;;5032219;28;20407;-66
2022/01/14 10:22:43;;;;;;;12.73;3.38;;;7.10;99.90;;;;;;5032436;28;20053;-65
2022/01/14 10:25:14;;;;;;;20.92;3.40;;;7.20;99.90;;;;;;5032817;28;20498;-66
2022/01/14 10:27:46;;;;;;;17.48;3.20;;;7.20;99.90;;;;;;5033679;28;20059;-66
2022/01/14 10:30:25;;;;;;;14.82;3.08;;;7.20;99.90;;;;;;5033160;28;20470;-67
2022/01/14 10:33:08;;;;;;;10.32;3.35;;;7.20;99.90;;;;;;5040419;28;20049;-66
2022/01/14 10:35:43;;;;;;;8.23;2.97;;;7.20;99.90;;;;;;5053115;28;20052;-66
2022/01/14 10:38:11;;;;;;;8.52;2.95;;;7.20;99.90;;;;;;5052082;28;20391;-66
2022/01/14 10:40:53;;;;;;;14.73;3.60;;;7.20;99.90;;;;;;5052950;28;20040;-68
2022/01/14 10:43:24;;;;;;;15.45;3.03;;;7.20;99.90;;;;;;5051747;28;20045;-68
2022/01/14 10:45:51;;;;;;;10.23;2.90;;;7.20;99.90;;;;;;5051576;28;20049;-68
2022/01/14 10:48:28;;;;;;;9.52;3.58;;;7.20;99.90;;;;;;5052796;28;20090;-68
2022/01/14 10:51:00;;;;;;;11.70;3.35;;;7.20;99.90;;;;;;5051809;28;20052;-68
2022/01/14 10:53:42;;;;;;;10.93;3.10;;;7.20;99.90;;;;;;5051234;28;20167;-68
2022/01/14 10:56:13;;;;;;;14.45;2.58;;;7.20;99.90;;;;;;5051277;28;20045;-68
2022/01/14 10:58:48;;;;;;;17.13;2.90;;;7.30;99.90;;;;;;5052573;28;20052;-68
2022/01/14 11:01:21;;;;;;;19.58;3.17;;;7.30;99.90;;;;;;5049641;28;20135;-67
2022/01/14 11:04:00;;;;;;;11.77;3.53;;;7.30;99.90;;;;;;5052246;28;20037;-68
2022/01/14 11:06:34;;;;;;;7.47;3.00;;;7.30;99.90;;;;;;5052568;28;20080;-68
2022/01/14 11:09:04;;;;;;;9.07;2.95;;;7.30;99.90;;;;;;5051837;28;20402;-68
2022/01/14 11:11:32;;;;;;;14.38;4.38;;;7.30;99.90;;;;;;5051516;28;20511;-68
2022/01/14 11:13:58;;;;;;;14.40;3.63;;;7.30;99.90;;;;;;5052295;28;20057;-68
2022/01/14 11:16:24;;;;;;;12.70;4.45;;;7.30;99.90;;;;;;5052189;28;20040;-67
2022/01/14 11:18:50;;;;;;;19.25;4.60;;;7.30;99.90;;;;;;5052542;28;20045;-72
2022/01/14 11:24:04;;;;;;;15.27;3.80;;;7.30;99.90;;;;;;5052407;28;20507;-72
2022/01/14 11:26:37;;;;;;;16.50;5.30;;;7.40;99.90;;;;;;5052764;28;20131;-71
2022/01/14 11:29:12;;;;;;;10.48;3.45;;;7.40;99.90;;;;;;5049943;28;20084;-71
2022/01/14 11:31:40;;;;;;;11.27;4.50;;;7.40;99.90;;;;;;5050956;28;20057;-71
2022/01/14 11:34:08;;;;;;;9.38;3.53;;;7.40;99.90;;;;;;5050760;28;20045;-72
2022/01/14 11:36:58;;;;;;;12.80;3.88;;;7.40;99.90;;;;;;5050050;28;20041;-70
2022/01/14 11:39:31;;;;;;;20.65;4.82;;;7.40;99.90;;;;;;5049183;28;20049;-72
2022/01/14 11:42:03;;;;;;;10.43;4.10;;;7.50;99.90;;;;;;5049758;28;20124;-71
2022/01/14 11:44:45;;;;;;;18.95;4.40;;;7.50;99.90;;;;;;5050640;28;20098;-71
2022/01/14 11:47:42;;;;;;;9.85;3.92;;;7.50;99.90;;;;;;5041424;28;20049;-70
2022/01/14 11:50:30;;;;;;;11.18;3.75;;;7.50;99.90;;;;;;5031983;28;20099;-71
2022/01/14 11:52:58;;;;;;;16.83;4.18;;;7.50;99.90;;;;;;5049927;28;20056;-70
2022/01/14 11:55:32;;;;;;;13.02;4.28;;;7.50;99.90;;;;;;5049743;28;20048;-70
2022/01/14 11:58:00;;;;;;;20.98;5.30;;;7.50;99.90;;;;;;5050766;28;20053;-72
2022/01/14 12:00:47;;;;;;;20.85;4.70;;;7.50;99.90;;;;;;5051066;28;20123;-71
2022/01/14 12:03:14;;;;;;;13.27;3.78;;;7.60;99.90;;;;;;5049878;28;20056;-71
2022/01/14 12:06:07;;;;;;;19.00;5.47;;;7.60;99.90;;;;;;5050240;28;20124;-71
2022/01/14 12:08:34;;;;;;;18.10;4.07;;;7.60;99.90;;;;;;5049509;28;20053;-72
2022/01/14 12:11:06;;;;;;;15.32;3.97;;;7.60;99.90;;;;;;5050454;28;20102;-72
2022/01/14 12:16:05;;;;;;;18.38;3.92;;;7.60;99.90;;;;;;5049387;28;20057;-72
2022/01/14 12:18:46;;;;;;;16.52;4.05;;;7.60;99.90;;;;;;5048961;28;20049;-71
2022/01/14 12:21:12;;;;;;;14.65;3.80;;;7.60;99.90;;;;;;5049966;28;20415;-72
2022/01/14 12:23:39;;;;;;;16.83;4.53;;;7.60;99.90;;;;;;5049444;28;20071;-71
2022/01/14 12:26:19;;;;;;;12.73;3.78;;;7.60;99.90;;;;;;5048466;28;20098;-70
2022/01/14 12:29:06;;;;;;;13.90;4.05;;;7.60;99.90;;;;;;5050709;28;20052;-71
2022/01/14 12:32:01;;;;;;;17.65;3.95;;;7.60;99.90;;;;;;5048659;28;20088;-71
2022/01/14 12:34:27;;;;;;;11.93;3.50;;;7.60;99.90;;;;;;5049453;28;20088;-71
2022/01/14 12:36:52;;;;;;;9.20;3.42;;;7.60;99.90;;;;;;5049280;28;20048;-71
2022/01/14 12:39:18;;;;;;;15.35;4.00;;;7.60;99.90;;;;;;5048621;28;20041;-72
2022/01/14 12:41:44;;;;;;;15.82;4.00;;;7.60;99.90;;;;;;5050515;28;20049;-71
2022/01/14 12:44:10;;;;;;;19.52;4.03;;;7.60;99.90;;;;;;5049024;28;20063;-71
2022/01/14 12:46:53;;;;;;;13.73;3.90;;;7.60;99.90;;;;;;5049009;28;20064;-72
2022/01/14 12:49:22;;;;;;;;;;;7.60;99.90;;;;;;5049088;28;20132;-71
2022/01/14 12:52:10;;;;;;;18.10;4.32;;;7.60;99.90;;;;;;5049431;28;20007;-72
2022/01/14 12:54:41;;;;;;;16.15;3.70;;;7.60;99.90;;;;;;5048517;28;20056;-72
2022/01/14 12:57:07;;;;;;;15.05;4.68;;;7.60;99.90;;;;;;5049043;28;20073;-72
2022/01/14 12:59:41;;;;;;;15.90;4.38;;;7.60;99.90;;;;;;5048498;28;20060;-72
2022/01/14 13:02:07;;;;;;;18.88;3.90;;;7.60;99.90;;;;;;5048844;28;20041;-72
2022/01/14 13:04:33;;;;;;;18.67;3.95;;;7.60;99.90;;;;;;5049270;28;20051;-72
2022/01/14 13:07:02;;;;;;;27.55;4.35;;;7.60;99.90;;;;;;5050122;28;20434;-72
2022/01/14 13:09:31;;;;;;;14.35;4.80;;;7.60;99.90;;;;;;5050215;28;20045;-72
2022/01/14 13:12:12;;;;;;;16.85;4.75;;;7.60;99.90;;;;;;5049096;28;20045;-72
2022/01/14 13:15:01;;;;;;;27.80;4.77;;;7.60;99.90;;;;;;5048686;28;20045;-72